Weather at Lahad Datu Airport

Public forecast

Using degrees Celsius for public forecast. Weather courtesy of forecast.io.

Closest aviation weather report (METAR) to Lahad Datu Airport

Closest report is Tawau Airport, 44.8 nm (83.0 km) SSW.

2024/05/21 06:00 (retrieved 30 minutes ago)

WBKW 210600Z 16007KT 110V250 9999 FEW016 33/25 Q1007

Closest aviation forecast (TAF) to Lahad Datu Airport

Closest forecast is Tawau Airport, 44.8 nm (83.0 km) SSW.

2024/05/21 06:00 (retrieved 30 minutes ago)

TAF WBKW 210500Z 2106/2206 17006KT 9999 FEW016 BECMG 2110/2112 VRB03KT